Arcade, New York
Current Conditions -  °F | °C
As of 2:35 PM on Tuesday 21 Oct 2014 (Local Time) from KOLE Reporting Station
Overcast Overcast  
Wind Chill:   Ceiling: 900
Heat Index:   Visibility: 10mi
Dew Point:   Wind: 5mph
Humidity: 100%   Direction: 310°NW
Pressure: 29.85"   Gusts: NA
Location:  42.53°N, 78.42°W
Report Text: KOLE 211835Z AUTO 31004KT 10SM BKN009 BKN013 OVC040 09/09 A2985 RMK AO2
Loading
Personal Weather Stations






























Interactive Weather Map
Tropical Storm Tracking
New forecast layout! Learn more

10-Day Weather Forecast

Advertisements
Track Severe Weather on mobile